Time;durP1;ratioP1;P1;durP2;ratioP2;P2;SDS_P1;SDS_P2;PMS_P1;PMS_P2;Temp;Humidity;BMP_temperature;BMP_pressure;BME280_temperature;BME280_humidity;BME280_pressure;Samples;Min_cycle;Max_cycle;Signal;HPM_P1;HPM_P2
2021/09/05 00:00:04;;;;;;;10.43;7.07;;;;;;;;;;5090123;28;20027;-80
2021/09/05 00:02:30;;;;;;;10.85;7.80;;;;;;;;;;5081905;28;20051;-80
2021/09/05 00:04:56;;;;;;;12.70;7.15;;;;;;;;;;5102200;28;20036;-80
2021/09/05 00:07:22;;;;;;;10.65;6.55;;;;;;;;;;5097542;28;20039;-79
2021/09/05 00:09:48;;;;;;;10.27;6.72;;;;;;;;;;5102709;28;20027;-80
2021/09/05 00:12:14;;;;;;;9.93;6.40;;;;;;;;;;5084389;28;20028;-80
2021/09/05 00:14:40;;;;;;;10.95;6.70;;;;;;;;;;5063752;28;20025;-80
2021/09/05 00:17:06;;;;;;;8.70;6.35;;;;;;;;;;5080329;28;20028;-80
2021/09/05 00:19:32;;;;;;;10.60;5.85;;;;;;;;;;5096305;28;20111;-80
2021/09/05 00:21:58;;;;;;;10.13;6.90;;;;;;;;;;5100795;28;20074;-80
2021/09/05 00:24:24;;;;;;;10.00;6.68;;;;;;;;;;5084306;28;20115;-80
2021/09/05 00:26:50;;;;;;;10.18;5.95;;;;;;;;;;5088458;28;20078;-79
2021/09/05 00:29:16;;;;;;;12.27;5.97;;;;;;;;;;5083801;28;20036;-80
2021/09/05 00:31:42;;;;;;;9.75;6.43;;;;;;;;;;5090856;28;20099;-79
2021/09/05 00:34:08;;;;;;;9.25;6.32;;;;;;;;;;5087876;28;20038;-79
2021/09/05 00:36:35;;;;;;;10.25;6.00;;;;;;;;;;5107765;28;20052;-80
2021/09/05 00:39:01;;;;;;;10.63;7.07;;;;;;;;;;5087542;28;20036;-80
2021/09/05 00:41:27;;;;;;;9.70;6.15;;;;;;;;;;5080266;28;20440;-80
2021/09/05 00:44:02;;;;;;;8.65;6.53;;;;;;;;;;5089783;28;20108;-79
2021/09/05 00:46:28;;;;;;;8.43;6.38;;;;;;;;;;5085752;28;20366;-80
2021/09/05 00:48:54;;;;;;;9.10;6.82;;;;;;;;;;5090045;28;20059;-79
2021/09/05 00:51:22;;;;;;;10.35;7.00;;;;;;;;;;5081363;28;20046;-80
2021/09/05 00:53:48;;;;;;;10.82;7.45;;;;;;;;;;5089219;28;20027;-80
2021/09/05 00:56:14;;;;;;;10.02;6.85;;;;;;;;;;5080147;28;20028;-80
2021/09/05 00:58:41;;;;;;;12.15;6.63;;;;;;;;;;5088577;28;20034;-80
2021/09/05 01:01:08;;;;;;;9.57;6.30;;;;;;;;;;5082111;28;20505;-80
2021/09/05 01:03:34;;;;;;;9.63;7.35;;;;;;;;;;5089469;28;20048;-80
2021/09/05 01:06:01;;;;;;;14.95;6.80;;;;;;;;;;5101827;28;20039;-80
2021/09/05 01:08:27;;;;;;;8.35;6.50;;;;;;;;;;5102601;28;20029;-79
2021/09/05 01:10:53;;;;;;;8.82;6.70;;;;;;;;;;5096579;28;20032;-79
2021/09/05 01:13:19;;;;;;;10.20;7.35;;;;;;;;;;5104313;28;20020;-79
2021/09/05 01:15:45;;;;;;;10.50;7.03;;;;;;;;;;5100366;28;20028;-80
2021/09/05 01:18:11;;;;;;;11.32;6.97;;;;;;;;;;5094569;28;20401;-80
2021/09/05 01:20:37;;;;;;;12.15;7.15;;;;;;;;;;5079206;28;20036;-80
2021/09/05 01:23:03;;;;;;;10.95;7.32;;;;;;;;;;5084643;28;20080;-80
2021/09/05 01:25:29;;;;;;;12.73;7.00;;;;;;;;;;5100978;28;20119;-81
2021/09/05 01:27:55;;;;;;;10.80;7.47;;;;;;;;;;5096741;28;20494;-81
2021/09/05 01:30:21;;;;;;;12.75;8.88;;;;;;;;;;5079809;28;20029;-81
2021/09/05 01:32:47;;;;;;;10.80;7.40;;;;;;;;;;5081862;28;20040;-81
2021/09/05 01:35:13;;;;;;;11.25;7.40;;;;;;;;;;5101501;28;20546;-80
2021/09/05 01:37:39;;;;;;;10.38;7.45;;;;;;;;;;5103578;28;20077;-78
2021/09/05 01:40:05;;;;;;;11.20;7.82;;;;;;;;;;5075856;28;20032;-79
2021/09/05 01:42:31;;;;;;;10.48;7.78;;;;;;;;;;5094269;28;20033;-78
2021/09/05 01:44:57;;;;;;;11.05;7.72;;;;;;;;;;5103773;28;20024;-81
2021/09/05 01:47:23;;;;;;;11.75;8.02;;;;;;;;;;5097379;28;20028;-80
2021/09/05 01:49:50;;;;;;;11.73;8.43;;;;;;;;;;5075191;28;20070;-80
2021/09/05 01:52:16;;;;;;;10.73;8.57;;;;;;;;;;5075365;28;20097;-80
2021/09/05 01:54:42;;;;;;;13.13;8.95;;;;;;;;;;5093696;28;20419;-80
2021/09/05 01:57:08;;;;;;;11.05;8.82;;;;;;;;;;5095127;28;20115;-80
2021/09/05 01:59:34;;;;;;;11.15;9.10;;;;;;;;;;5059635;28;20032;-80
2021/09/05 02:02:00;;;;;;;12.35;8.80;;;;;;;;;;5075951;28;20477;-79
2021/09/05 02:04:26;;;;;;;13.55;9.10;;;;;;;;;;5075413;28;20037;-80
2021/09/05 02:06:52;;;;;;;14.98;9.70;;;;;;;;;;5074889;28;20036;-79
2021/09/05 02:09:18;;;;;;;13.82;9.32;;;;;;;;;;5089737;28;20480;-79
2021/09/05 02:11:44;;;;;;;12.15;9.90;;;;;;;;;;5060650;28;20040;-80
2021/09/05 02:14:10;;;;;;;11.52;9.30;;;;;;;;;;5094739;28;20112;-79
2021/09/05 02:16:36;;;;;;;13.40;9.43;;;;;;;;;;5095356;28;20024;-79
2021/09/05 02:19:02;;;;;;;15.15;9.45;;;;;;;;;;5082114;28;20032;-79
2021/09/05 02:21:28;;;;;;;13.10;9.45;;;;;;;;;;5074816;28;20025;-79
2021/09/05 02:23:54;;;;;;;12.27;9.20;;;;;;;;;;5087107;28;20058;-81
2021/09/05 02:26:20;;;;;;;11.93;9.02;;;;;;;;;;5096185;28;20024;-80
2021/09/05 02:28:46;;;;;;;13.80;9.48;;;;;;;;;;5084091;28;20032;-79
2021/09/05 02:31:12;;;;;;;10.90;8.35;;;;;;;;;;5085438;28;20024;-79
2021/09/05 02:33:39;;;;;;;13.88;9.25;;;;;;;;;;5085756;28;20024;-79
2021/09/05 02:36:05;;;;;;;11.65;9.02;;;;;;;;;;5075725;28;20032;-80
2021/09/05 02:38:31;;;;;;;14.57;8.40;;;;;;;;;;5076983;28;20025;-77
2021/09/05 02:40:57;;;;;;;11.52;8.65;;;;;;;;;;5074073;28;20449;-79
2021/09/05 02:43:23;;;;;;;11.60;8.23;;;;;;;;;;5081339;28;20040;-79
2021/09/05 02:45:49;;;;;;;10.63;8.50;;;;;;;;;;5095063;28;20077;-80
2021/09/05 02:48:15;;;;;;;12.30;9.30;;;;;;;;;;5094076;28;20054;-80
2021/09/05 02:50:41;;;;;;;13.25;8.38;;;;;;;;;;5075033;28;20488;-78
2021/09/05 02:53:07;;;;;;;14.75;9.77;;;;;;;;;;5075787;28;20020;-79
2021/09/05 02:55:33;;;;;;;10.23;8.23;;;;;;;;;;5093932;28;20024;-79
2021/09/05 02:57:59;;;;;;;11.65;7.72;;;;;;;;;;5085684;28;20512;-79
2021/09/05 03:00:25;;;;;;;11.35;7.68;;;;;;;;;;5071864;28;20080;-80
2021/09/05 03:02:51;;;;;;;13.15;8.32;;;;;;;;;;5054444;28;20090;-80
2021/09/05 03:05:18;;;;;;;13.90;8.68;;;;;;;;;;5073572;28;20032;-79
2021/09/05 03:07:43;;;;;;;12.00;8.50;;;;;;;;;;5093095;28;20067;-80
2021/09/05 03:10:10;;;;;;;12.73;8.80;;;;;;;;;;5091953;28;20031;-79
2021/09/05 03:12:36;;;;;;;11.10;8.20;;;;;;;;;;5074915;28;20028;-79
2021/09/05 03:15:02;;;;;;;9.93;7.45;;;;;;;;;;5080155;28;20100;-79
2021/09/05 03:17:30;;;;;;;10.52;8.27;;;;;;;;;;5089827;28;20034;-80
2021/09/05 03:19:56;;;;;;;11.88;8.60;;;;;;;;;;5092533;28;20052;-80
2021/09/05 03:22:22;;;;;;;11.13;7.97;;;;;;;;;;5093131;28;20028;-81
2021/09/05 03:24:48;;;;;;;10.98;7.88;;;;;;;;;;5092091;28;20499;-79
2021/09/05 03:27:14;;;;;;;11.07;8.60;;;;;;;;;;5091935;28;20042;-79
2021/09/05 03:29:40;;;;;;;10.52;8.18;;;;;;;;;;5075059;28;20036;-79
2021/09/05 03:32:06;;;;;;;13.02;8.38;;;;;;;;;;5072443;28;20118;-79
2021/09/05 03:34:32;;;;;;;10.35;8.27;;;;;;;;;;5082698;28;20020;-80
2021/09/05 03:36:58;;;;;;;12.30;8.80;;;;;;;;;;5073902;28;20570;-77
2021/09/05 03:39:26;;;;;;;13.77;8.23;;;;;;;;;;5091778;28;20071;-79
2021/09/05 03:41:52;;;;;;;14.02;8.40;;;;;;;;;;5092195;28;20441;-78
2021/09/05 03:44:18;;;;;;;11.25;8.38;;;;;;;;;;5092135;28;20035;-79
2021/09/05 03:46:43;;;;;;;12.00;9.27;;;;;;;;;;5092414;28;20043;-79
2021/09/05 03:49:09;;;;;;;13.63;9.43;;;;;;;;;;5075944;28;20032;-79
2021/09/05 03:51:35;;;;;;;12.32;9.90;;;;;;;;;;5072001;28;20390;-78
2021/09/05 03:54:01;;;;;;;12.70;10.02;;;;;;;;;;5073805;28;20024;-79
2021/09/05 03:56:27;;;;;;;13.15;9.57;;;;;;;;;;5076755;28;20024;-80
2021/09/05 03:58:53;;;;;;;13.75;9.88;;;;;;;;;;5077315;28;20032;-81
2021/09/05 04:01:19;;;;;;;15.82;10.23;;;;;;;;;;5079763;28;20055;-79
2021/09/05 04:03:45;;;;;;;11.65;9.63;;;;;;;;;;5075543;28;20037;-79
2021/09/05 04:06:13;;;;;;;14.43;10.00;;;;;;;;;;5075377;28;20594;-79
2021/09/05 04:08:41;;;;;;;14.20;9.98;;;;;;;;;;5074840;28;20024;-79
2021/09/05 04:11:07;;;;;;;13.05;9.38;;;;;;;;;;5074710;28;20533;-79
2021/09/05 04:13:34;;;;;;;13.95;9.43;;;;;;;;;;5074596;28;20032;-80
2021/09/05 04:16:00;;;;;;;12.88;9.23;;;;;;;;;;5077453;28;20059;-78
2021/09/05 04:18:26;;;;;;;11.30;8.82;;;;;;;;;;5075875;28;20037;-79
2021/09/05 04:20:52;;;;;;;11.65;8.43;;;;;;;;;;5075810;28;20029;-79
2021/09/05 04:23:18;;;;;;;12.93;7.85;;;;;;;;;;5057765;28;20029;-79
2021/09/05 04:25:44;;;;;;;10.52;8.10;;;;;;;;;;5072518;28;20154;-79
2021/09/05 04:28:10;;;;;;;8.70;7.25;;;;;;;;;;5077318;28;20515;-79
2021/09/05 04:30:36;;;;;;;9.98;7.82;;;;;;;;;;5080301;28;20032;-79
2021/09/05 04:33:03;;;;;;;10.65;7.68;;;;;;;;;;5075178;28;20394;-79
2021/09/05 04:35:29;;;;;;;12.55;7.30;;;;;;;;;;5074649;28;20021;-79
2021/09/05 04:37:55;;;;;;;10.30;7.10;;;;;;;;;;5075719;28;20548;-79
2021/09/05 04:40:21;;;;;;;8.85;7.28;;;;;;;;;;5079760;28;20024;-79
2021/09/05 04:42:46;;;;;;;11.13;7.32;;;;;;;;;;5094397;28;20412;-79
2021/09/05 04:45:12;;;;;;;10.50;7.70;;;;;;;;;;5094770;28;20090;-80
2021/09/05 04:47:38;;;;;;;11.35;7.72;;;;;;;;;;5076407;28;20389;-80
2021/09/05 04:50:05;;;;;;;10.70;7.70;;;;;;;;;;5076006;28;20063;-80
2021/09/05 04:52:31;;;;;;;15.90;9.20;;;;;;;;;;5094555;28;20437;-79
2021/09/05 04:54:57;;;;;;;15.40;8.60;;;;;;;;;;5090296;28;20456;-79
2021/09/05 04:57:23;;;;;;;13.73;8.07;;;;;;;;;;5073972;28;20066;-79
2021/09/05 04:59:49;;;;;;;10.70;8.05;;;;;;;;;;5076384;28;20052;-80
2021/09/05 05:02:15;;;;;;;10.23;7.68;;;;;;;;;;5073781;28;20040;-79
2021/09/05 05:04:41;;;;;;;11.07;7.70;;;;;;;;;;5073820;28;20032;-80
2021/09/05 05:07:07;;;;;;;11.07;8.15;;;;;;;;;;5073068;28;20385;-80
2021/09/05 05:09:33;;;;;;;13.63;8.02;;;;;;;;;;5072951;28;20028;-79
2021/09/05 05:11:59;;;;;;;10.85;8.00;;;;;;;;;;5080591;28;20032;-79
2021/09/05 05:14:25;;;;;;;10.70;8.05;;;;;;;;;;5092970;28;20039;-77
2021/09/05 05:16:51;;;;;;;9.73;7.53;;;;;;;;;;5095730;28;20024;-81
2021/09/05 05:19:17;;;;;;;11.77;8.27;;;;;;;;;;5094172;28;20225;-80
2021/09/05 05:21:43;;;;;;;11.48;7.93;;;;;;;;;;5094477;28;20039;-81
2021/09/05 05:24:09;;;;;;;10.57;7.82;;;;;;;;;;5094977;28;20078;-82
2021/09/05 05:26:37;;;;;;;9.60;7.72;;;;;;;;;;5097570;28;20076;-81
2021/09/05 05:29:04;;;;;;;9.38;7.28;;;;;;;;;;5075255;28;20028;-81
2021/09/05 05:31:30;;;;;;;11.07;8.13;;;;;;;;;;5078493;28;20017;-79
2021/09/05 05:33:56;;;;;;;14.10;7.68;;;;;;;;;;5073818;28;20036;-79
2021/09/05 05:36:21;;;;;;;8.25;6.85;;;;;;;;;;5073844;28;20025;-78
2021/09/05 05:38:47;;;;;;;12.48;8.10;;;;;;;;;;5073307;28;20024;-81
2021/09/05 05:41:15;;;;;;;9.55;7.50;;;;;;;;;;5075698;28;20027;-82
2021/09/05 05:43:41;;;;;;;11.50;7.43;;;;;;;;;;5076087;28;20024;-82
2021/09/05 05:46:06;;;;;;;11.38;7.28;;;;;;;;;;5088762;28;20055;-82
2021/09/05 05:48:32;;;;;;;11.18;7.57;;;;;;;;;;5095974;28;20038;-82
2021/09/05 05:50:58;;;;;;;11.48;7.65;;;;;;;;;;5094947;28;20026;-82
2021/09/05 05:53:25;;;;;;;11.77;7.25;;;;;;;;;;5076313;28;20435;-81
2021/09/05 05:55:50;;;;;;;13.07;8.65;;;;;;;;;;5059202;28;20511;-80
2021/09/05 05:58:16;;;;;;;11.60;6.75;;;;;;;;;;5081926;28;20032;-80
2021/09/05 06:00:43;;;;;;;10.00;6.97;;;;;;;;;;5095984;28;20024;-80
2021/09/05 06:03:09;;;;;;;10.02;7.28;;;;;;;;;;5099516;28;20026;-81
2021/09/05 06:05:35;;;;;;;9.50;6.68;;;;;;;;;;5094415;28;20383;-81
2021/09/05 06:08:02;;;;;;;8.18;6.43;;;;;;;;;;5076775;28;20032;-80
2021/09/05 06:10:29;;;;;;;8.18;6.85;;;;;;;;;;5094236;28;20026;-81
2021/09/05 06:12:55;;;;;;;9.20;6.35;;;;;;;;;;5094948;28;20050;-81
2021/09/05 06:15:21;;;;;;;7.88;6.28;;;;;;;;;;5094817;28;20656;-82
2021/09/05 06:17:47;;;;;;;8.88;6.35;;;;;;;;;;5093354;28;20036;-82
2021/09/05 06:20:13;;;;;;;8.40;6.57;;;;;;;;;;5056958;28;20035;-82
2021/09/05 06:22:39;;;;;;;8.30;6.20;;;;;;;;;;5075421;28;20032;-82
2021/09/05 06:25:06;;;;;;;9.63;6.30;;;;;;;;;;5074261;28;20032;-83
2021/09/05 06:27:32;;;;;;;13.32;7.07;;;;;;;;;;5074374;28;20032;-80
2021/09/05 06:30:00;;;;;;;8.98;6.72;;;;;;;;;;5081921;28;20108;-76
2021/09/05 06:32:26;;;;;;;13.43;6.45;;;;;;;;;;5094254;28;20536;-80
2021/09/05 06:34:52;;;;;;;12.10;6.82;;;;;;;;;;5092384;28;20048;-80
2021/09/05 06:37:18;;;;;;;8.77;6.45;;;;;;;;;;5081826;28;20033;-82
2021/09/05 06:39:44;;;;;;;13.35;7.18;;;;;;;;;;5099545;28;20032;-79
2021/09/05 06:42:10;;;;;;;9.45;6.28;;;;;;;;;;5094346;28;20043;-81
2021/09/05 06:44:36;;;;;;;11.23;7.03;;;;;;;;;;5096317;28;20092;-81
2021/09/05 06:47:03;;;;;;;9.05;6.32;;;;;;;;;;5061960;28;20028;-81
2021/09/05 06:49:29;;;;;;;11.18;7.55;;;;;;;;;;5068774;28;20062;-82
2021/09/05 06:51:55;;;;;;;9.73;6.57;;;;;;;;;;5092457;28;20032;-83
2021/09/05 06:54:21;;;;;;;8.93;6.88;;;;;;;;;;5096475;28;20031;-83
2021/09/05 06:56:47;;;;;;;10.00;6.70;;;;;;;;;;5096239;28;20025;-84
2021/09/05 06:59:13;;;;;;;11.60;6.90;;;;;;;;;;5093032;28;20024;-83
2021/09/05 07:01:39;;;;;;;7.70;6.20;;;;;;;;;;5075725;28;20028;-83
2021/09/05 07:04:14;;;;;;;6.95;5.55;;;;;;;;;;5057936;28;20485;-84
2021/09/05 07:06:45;;;;;;;8.82;6.00;;;;;;;;;;5057344;28;20032;-83
2021/09/05 07:09:23;;;;;;;8.55;6.60;;;;;;;;;;5058828;28;20031;-79
2021/09/05 07:12:08;;;;;;;8.32;6.40;;;;;;;;;;5068685;28;20032;-83
2021/09/05 07:14:48;;;;;;;8.73;6.40;;;;;;;;;;5054386;28;20075;-79
2021/09/05 07:17:25;;;;;;;11.43;6.10;;;;;;;;;;5053550;28;20651;-81
2021/09/05 07:20:07;;;;;;;8.82;6.32;;;;;;;;;;5054345;28;20127;-81
2021/09/05 07:22:50;;;;;;;7.15;5.78;;;;;;;;;;5072022;28;20036;-81
2021/09/05 07:25:27;;;;;;;7.50;5.70;;;;;;;;;;5070669;28;20075;-81
2021/09/05 07:27:59;;;;;;;6.95;5.50;;;;;;;;;;5059006;28;20037;-81
2021/09/05 07:30:40;;;;;;;7.88;5.70;;;;;;;;;;5082592;28;20020;-80
2021/09/05 07:33:15;;;;;;;8.48;5.13;;;;;;;;;;5077213;28;20031;-81
2021/09/05 07:35:45;;;;;;;6.78;5.47;;;;;;;;;;5077288;28;20017;-82
2021/09/05 07:38:19;;;;;;;7.25;5.50;;;;;;;;;;5060880;28;20031;-81
2021/09/05 07:40:47;;;;;;;7.43;5.45;;;;;;;;;;5044263;28;20028;-80
2021/09/05 07:43:16;;;;;;;8.32;5.75;;;;;;;;;;5062180;28;20056;-82
2021/09/05 07:45:42;;;;;;;8.80;5.70;;;;;;;;;;5065636;28;20116;-82
2021/09/05 07:48:08;;;;;;;9.20;5.80;;;;;;;;;;5084865;28;20119;-82
2021/09/05 07:50:34;;;;;;;6.90;5.40;;;;;;;;;;5077902;28;20071;-82
2021/09/05 07:53:00;;;;;;;8.20;4.90;;;;;;;;;;5078100;28;20092;-83
2021/09/05 07:55:26;;;;;;;6.40;5.20;;;;;;;;;;5077825;28;20566;-83
2021/09/05 07:57:52;;;;;;;6.63;5.20;;;;;;;;;;5077564;28;20020;-82
2021/09/05 08:00:18;;;;;;;9.38;5.20;;;;;;;;;;5076722;28;20028;-83
2021/09/05 08:02:44;;;;;;;7.13;4.70;;;;;;;;;;5078100;28;20062;-79
2021/09/05 08:05:11;;;;;;;7.38;5.38;;;;;;;;;;5097736;28;20028;-80
2021/09/05 08:07:37;;;;;;;8.70;4.90;;;;;;;;;;5092929;28;20446;-78
2021/09/05 08:10:04;;;;;;;7.15;5.72;;;;;;;;;;5074805;28;20024;-83
2021/09/05 08:12:30;;;;;;;5.53;4.60;;;;;;;;;;5077375;28;20508;-84
2021/09/05 08:14:56;;;;;;;7.70;4.80;;;;;;;;;;5059799;28;20024;-83
2021/09/05 08:17:22;;;;;;;9.02;4.63;;;;;;;;;;5078292;28;20044;-83
2021/09/05 08:19:50;;;;;;;7.85;5.13;;;;;;;;;;5075663;28;20048;-82
2021/09/05 08:22:16;;;;;;;6.28;4.55;;;;;;;;;;5077691;28;20503;-83
2021/09/05 08:24:42;;;;;;;7.65;5.30;;;;;;;;;;5076859;28;20029;-85
2021/09/05 08:27:08;;;;;;;10.98;5.65;;;;;;;;;;5075951;28;20405;-84
2021/09/05 08:29:35;;;;;;;6.13;4.85;;;;;;;;;;5057482;28;20039;-85
2021/09/05 08:32:01;;;;;;;10.40;5.10;;;;;;;;;;5074324;28;20138;-85
2021/09/05 08:34:27;;;;;;;6.88;4.97;;;;;;;;;;5076982;28;20507;-87
2021/09/05 08:36:53;;;;;;;6.70;4.65;;;;;;;;;;5094444;28;20118;-77
2021/09/05 08:39:19;;;;;;;7.80;4.43;;;;;;;;;;5080140;28;20028;-81
2021/09/05 08:41:45;;;;;;;5.43;4.80;;;;;;;;;;5097193;28;20028;-80
2021/09/05 08:44:11;;;;;;;7.53;5.35;;;;;;;;;;5097898;28;20024;-81
2021/09/05 08:46:38;;;;;;;9.32;5.25;;;;;;;;;;5097725;28;20039;-81
2021/09/05 08:49:04;;;;;;;6.90;4.95;;;;;;;;;;5082934;28;20536;-81
2021/09/05 08:51:31;;;;;;;7.55;5.53;;;;;;;;;;5118907;28;20059;-78
2021/09/05 08:53:58;;;;;;;7.22;4.80;;;;;;;;;;5115305;28;20107;-78
2021/09/05 08:56:24;;;;;;;8.55;5.72;;;;;;;;;;5117921;28;20028;-80
2021/09/05 08:58:50;;;;;;;6.68;5.03;;;;;;;;;;5098430;28;20031;-80
2021/09/05 09:01:17;;;;;;;8.23;5.30;;;;;;;;;;5096228;28;20032;-80
2021/09/05 09:03:43;;;;;;;6.47;4.80;;;;;;;;;;5081921;28;20036;-81
2021/09/05 09:06:10;;;;;;;7.07;4.90;;;;;;;;;;5075783;28;20051;-81
2021/09/05 09:08:36;;;;;;;6.20;4.80;;;;;;;;;;5076576;28;20107;-78
2021/09/05 09:11:02;;;;;;;6.22;4.95;;;;;;;;;;5095721;28;20055;-83
2021/09/05 09:13:38;;;;;;;6.65;4.72;;;;;;;;;;5091151;28;20024;-81
2021/09/05 09:16:06;;;;;;;6.75;5.00;;;;;;;;;;5101444;28;20023;-80
2021/09/05 09:18:32;;;;;;;7.95;4.82;;;;;;;;;;5096114;28;20058;-80
2021/09/05 09:21:04;;;;;;;8.77;4.93;;;;;;;;;;5077911;28;20539;-82
2021/09/05 09:23:31;;;;;;;6.70;4.95;;;;;;;;;;5114637;28;20471;-82
2021/09/05 09:25:57;;;;;;;8.38;4.93;;;;;;;;;;5112424;28;20080;-83
2021/09/05 09:28:23;;;;;;;6.07;4.78;;;;;;;;;;5107643;28;20038;-81
2021/09/05 09:30:49;;;;;;;5.50;4.32;;;;;;;;;;5092546;28;20020;-81
2021/09/05 09:33:20;;;;;;;6.45;4.15;;;;;;;;;;5073951;28;20107;-82
2021/09/05 09:35:50;;;;;;;6.47;4.10;;;;;;;;;;5074874;28;20021;-81
2021/09/05 09:38:17;;;;;;;7.38;4.63;;;;;;;;;;5075740;28;20111;-81
2021/09/05 09:40:43;;;;;;;5.70;4.40;;;;;;;;;;5054387;28;20029;-82
2021/09/05 09:43:19;;;;;;;8.25;4.50;;;;;;;;;;5078878;28;20122;-80
2021/09/05 09:45:46;;;;;;;6.25;4.60;;;;;;;;;;5083342;28;20028;-80
2021/09/05 09:48:21;;;;;;;7.57;5.68;;;;;;;;;;5059668;28;20020;-80
2021/09/05 09:50:47;;;;;;;6.28;4.68;;;;;;;;;;5077907;28;20024;-80
2021/09/05 09:53:13;;;;;;;5.93;4.60;;;;;;;;;;5091088;28;20032;-81
2021/09/05 09:55:41;;;;;;;6.22;4.47;;;;;;;;;;5093384;28;20035;-81
2021/09/05 09:58:07;;;;;;;7.40;4.53;;;;;;;;;;5096101;28;20036;-82
2021/09/05 10:00:33;;;;;;;8.38;5.43;;;;;;;;;;5099409;28;20044;-81
2021/09/05 10:03:00;;;;;;;7.78;4.22;;;;;;;;;;5095153;28;20032;-81
2021/09/05 10:05:27;;;;;;;5.47;4.57;;;;;;;;;;5095761;28;20029;-81
2021/09/05 10:07:55;;;;;;;5.82;4.15;;;;;;;;;;5090658;28;20036;-80
2021/09/05 10:10:22;;;;;;;5.30;4.28;;;;;;;;;;5080022;28;20044;-80
2021/09/05 10:12:48;;;;;;;5.35;4.05;;;;;;;;;;5097400;28;20015;-80
2021/09/05 10:15:14;;;;;;;15.93;4.72;;;;;;;;;;5117487;28;20076;-82
2021/09/05 10:17:40;;;;;;;6.13;4.03;;;;;;;;;;5100703;28;20020;-82
2021/09/05 10:20:07;;;;;;;6.88;4.03;;;;;;;;;;5090550;28;20032;-81
2021/09/05 10:22:33;;;;;;;7.28;4.53;;;;;;;;;;5072788;28;20037;-80
2021/09/05 10:25:04;;;;;;;5.38;4.35;;;;;;;;;;5072495;28;20023;-76
2021/09/05 10:27:30;;;;;;;5.82;4.38;;;;;;;;;;5073877;28;20028;-80
2021/09/05 10:30:11;;;;;;;7.43;4.45;;;;;;;;;;5066604;28;20032;-80
2021/09/05 10:32:42;;;;;;;6.40;4.00;;;;;;;;;;5093817;28;20073;-79
2021/09/05 10:35:27;;;;;;;4.95;3.75;;;;;;;;;;5092983;28;20081;-78
2021/09/05 10:38:09;;;;;;;5.97;4.03;;;;;;;;;;5090390;28;20074;-78
2021/09/05 10:40:50;;;;;;;5.22;3.88;;;;;;;;;;5071837;28;20031;-78
2021/09/05 10:43:16;;;;;;;7.40;4.32;;;;;;;;;;5082408;28;20035;-78
2021/09/05 10:45:44;;;;;;;5.93;4.20;;;;;;;;;;5089709;28;20027;-78
2021/09/05 10:48:30;;;;;;;5.20;3.83;;;;;;;;;;5075443;28;20036;-79
2021/09/05 10:51:01;;;;;;;5.10;3.90;;;;;;;;;;5095252;28;20028;-77
2021/09/05 10:53:27;;;;;;;7.17;3.67;;;;;;;;;;5093677;28;20028;-81
2021/09/05 10:56:10;;;;;;;5.97;4.07;;;;;;;;;;5096120;28;20023;-83
2021/09/05 10:58:41;;;;;;;6.32;4.00;;;;;;;;;;5096868;28;20550;-79
2021/09/05 11:01:10;;;;;;;6.05;4.00;;;;;;;;;;5086575;28;20032;-79
2021/09/05 11:03:56;;;;;;;6.15;3.92;;;;;;;;;;5094973;28;20107;-80
2021/09/05 11:06:34;;;;;;;7.22;3.90;;;;;;;;;;5096333;28;20024;-79
2021/09/05 11:09:26;;;;;;;4.57;3.42;;;;;;;;;;5081347;28;20107;-81
2021/09/05 11:12:15;;;;;;;5.97;3.80;;;;;;;;;;5045516;28;20032;-82
2021/09/05 11:14:45;;;;;;;5.97;3.97;;;;;;;;;;5075196;28;20027;-82
2021/09/05 11:17:12;;;;;;;6.75;4.00;;;;;;;;;;5076364;28;20485;-82
2021/09/05 11:19:38;;;;;;;5.10;3.80;;;;;;;;;;5076374;28;20029;-82
2021/09/05 11:22:04;;;;;;;5.45;3.65;;;;;;;;;;5076188;28;20085;-82
2021/09/05 11:24:30;;;;;;;5.03;3.63;;;;;;;;;;5076623;28;20025;-83
2021/09/05 11:26:59;;;;;;;6.45;3.55;;;;;;;;;;5082947;28;20046;-82
2021/09/05 11:29:26;;;;;;;6.05;3.75;;;18.10;99.90;;;;;;5091888;28;20126;-82
2021/09/05 11:31:52;;;;;;;4.93;3.67;;;;;;;;;;5074749;28;20024;-82
2021/09/05 11:34:18;;;;;;;4.53;3.53;;;;;;;;;;5076949;28;20033;-82
2021/09/05 11:36:44;;;;;;;5.53;3.60;;;;;;;;;;5075910;28;20043;-82
2021/09/05 11:39:11;;;;;;;4.00;3.25;;;;;;;;;;5074964;28;20067;-82
2021/09/05 11:41:36;;;;;;;4.65;3.22;;;;;;;;;;5091485;28;20070;-82
2021/09/05 11:44:03;;;;;;;5.15;3.70;;;;;;;;;;5095504;28;20032;-82
2021/09/05 11:46:29;;;;;;;4.93;3.70;;;;;;;;;;5095549;28;20059;-82
2021/09/05 11:48:59;;;;;;;4.68;3.45;;;;;;;;;;5097586;28;20036;-82
2021/09/05 11:51:25;;;;;;;4.85;3.15;;;28.80;89.10;;;;;;5094846;28;20043;-82
2021/09/05 11:54:05;;;;;;;6.50;3.88;;;29.80;76.20;;;;;;5094690;28;20103;-83
2021/09/05 11:56:31;;;;;;;5.85;3.28;;;30.00;75.00;;;;;;5094555;28;20024;-82
2021/09/05 11:59:17;;;;;;;7.03;3.88;;;29.70;74.00;;;;;;5094556;28;20028;-82
2021/09/05 12:01:48;;;;;;;4.70;3.58;;;29.80;75.20;;;;;;5104674;28;20043;-84
2021/09/05 12:04:13;;;;;;;4.60;3.40;;;30.00;73.70;;;;;;5115077;28;20109;-82
2021/09/05 12:06:43;;;;;;;5.38;3.63;;;29.90;73.70;;;;;;5095265;28;20542;-82
2021/09/05 12:09:08;;;;;;;7.35;3.30;;;29.80;72.40;;;;;;5084461;28;20029;-82
2021/09/05 12:11:56;;;;;;;4.38;3.10;;;30.10;70.30;;;;;;5074517;28;20043;-82
2021/09/05 12:14:35;;;;;;;3.78;2.97;;;30.50;67.60;;;;;;5056462;28;20431;-82
2021/09/05 12:17:34;;;;;;;5.43;2.92;;;;;;;;;;5075920;28;20492;-82
2021/09/05 12:20:01;;;;;;;5.30;3.17;;;;;;;;;;5044100;28;20397;-82
2021/09/05 12:22:40;;;;;;;3.70;3.10;;;;;;;;;;5077518;28;20021;-82
2021/09/05 12:25:11;;;;;;;4.75;3.13;;;;;;;;;;5077845;28;20024;-83
2021/09/05 12:27:37;;;;;;;3.43;3.00;;;;;;;;;;5077731;28;20055;-83
2021/09/05 12:30:22;;;;;;;4.35;3.22;;;;;;;;;;5080091;28;20063;-83
2021/09/05 12:33:04;;;;;;;5.10;2.72;;;;;;;;;;5093533;28;20020;-83
2021/09/05 12:35:30;;;;;;;3.88;2.83;;;;;;;;;;5080837;28;20024;-85
2021/09/05 12:38:06;;;;;;;3.72;2.90;;;;;;;;;;5086912;28;20037;-85
2021/09/05 12:40:50;;;;;;;3.55;2.83;;;;;;;;;;5063614;28;20024;-85
2021/09/05 12:43:16;;;;;;;5.93;3.10;;;31.00;66.70;;;;;;5061059;28;20029;-85
2021/09/05 12:45:53;;;;;;;3.30;2.80;;;33.30;57.30;;;;;;5061345;28;20021;-85
2021/09/05 12:48:20;;;;;;;4.25;3.13;;;;;;;;;;5079924;28;20029;-85
2021/09/05 12:50:58;;;;;;;3.80;3.35;;;;;;;;;;5080716;28;20081;-84
2021/09/05 12:53:24;;;;;;;4.50;2.90;;;;;;;;;;5101700;28;20016;-84
2021/09/05 12:55:50;;;;;;;5.68;2.90;;;;;;;;;;5082835;28;20521;-82
2021/09/05 12:58:16;;;;;;;3.90;3.08;;;;;;;;;;5100374;28;20099;-85
2021/09/05 13:00:42;;;;;;;3.92;2.95;;;;;;;;;;5099448;28;20042;-85
2021/09/05 13:03:08;;;;;;;4.65;3.10;;;;;;;;;;5097472;28;20666;-84
2021/09/05 13:05:35;;;;;;;5.80;3.13;;;;;;;;;;5076523;28;20056;-84
2021/09/05 13:08:01;;;;;;;3.80;3.00;;;;;;;;;;5083239;28;20020;-85
2021/09/05 13:10:29;;;;;;;4.10;2.83;;;;;;;;;;5095350;28;20032;-84
2021/09/05 13:12:55;;;;;;;4.88;2.90;;;;;;;;;;5097693;28;20020;-84
2021/09/05 13:15:21;;;;;;;3.80;2.97;;;;;;;;;;5098151;28;20069;-85
2021/09/05 13:17:47;;;;;;;3.80;2.97;;;;;;;;;;5097230;28;20043;-84
2021/09/05 13:20:14;;;;;;;5.22;3.20;;;;;;;;;;5076583;28;20035;-85
2021/09/05 13:22:41;;;;;;;3.25;2.90;;;;;;;;;;5073312;28;20078;-85
2021/09/05 13:25:07;;;;;;;4.35;3.13;;;;;;;;;;5056748;28;20135;-85
2021/09/05 13:27:33;;;;;;;4.32;2.80;;;;;;;;;;5076895;28;20127;-84
2021/09/05 13:30:00;;;;;;;5.60;2.92;;;;;;;;;;5078068;28;20562;-84
2021/09/05 13:32:26;;;;;;;4.15;2.70;;;;;;;;;;5097791;28;20034;-85
2021/09/05 13:34:52;;;;;;;3.15;2.70;;;;;;;;;;5085019;28;20052;-85
2021/09/05 13:37:18;;;;;;;5.55;3.20;;;;;;;;;;5066110;28;20069;-85
2021/09/05 13:39:44;;;;;;;3.05;2.67;;;;;;;;;;5105274;28;20036;-85
2021/09/05 13:42:10;;;;;;;3.35;2.70;;;33.40;56.20;;;;;;5061623;28;20031;-85
2021/09/05 13:44:36;;;;;;;5.50;2.90;;;;;;;;;;5078823;28;20025;-80
2021/09/05 13:47:02;;;;;;;3.85;3.20;;;;;;;;;;5077638;28;20390;-84
2021/09/05 13:49:28;;;;;;;7.38;3.22;;;;;;;;;;5078715;28;20023;-85
2021/09/05 13:51:54;;;;;;;3.50;2.80;;;;;;;;;;5077949;28;20598;-85
2021/09/05 13:54:20;;;;;;;3.47;2.95;;;;;;;;;;5078213;28;20024;-85
2021/09/05 13:56:46;;;;;;;3.88;2.88;;;;;;;;;;5068623;28;20028;-85
2021/09/05 13:59:12;;;;;;;3.70;2.95;;;36.70;50.20;;;;;;5098805;28;20024;-85
2021/09/05 14:01:37;;;;;;;5.15;2.97;;;39.50;46.20;;;;;;5100725;28;20032;-86
2021/09/05 14:04:03;;;;;;;3.78;3.20;;;39.60;46.20;;;;;;5106314;28;20063;-84
2021/09/05 14:06:29;;;;;;;4.35;3.30;;;39.80;46.20;;;;;;5085502;28;20032;-86
2021/09/05 14:08:54;;;;;;;6.32;3.22;;;40.00;45.90;;;;;;5065237;28;20063;-85
2021/09/05 14:11:21;;;;;;;3.22;2.90;;;39.80;46.00;;;;;;5078751;28;20054;-84
2021/09/05 14:13:47;;;;;;;4.50;3.03;;;40.60;45.00;;;;;;5085956;28;20552;-85
2021/09/05 14:16:13;;;;;;;3.65;3.00;;;40.60;44.80;;;;;;5098519;28;20064;-85
2021/09/05 14:18:38;;;;;;;4.22;3.03;;;40.20;45.20;;;;;;5097400;28;20063;-83
2021/09/05 14:21:05;;;;;;;3.28;2.97;;;40.00;45.20;;;;;;5079082;28;20039;-86
2021/09/05 14:23:31;;;;;;;3.83;3.13;;;39.80;46.50;;;;;;5080656;28;20024;-82
2021/09/05 14:25:57;;;;;;;5.75;3.35;;;39.60;45.30;;;;;;5106688;28;20008;-84
2021/09/05 14:28:31;;;;;;;4.25;3.13;;;39.30;46.70;;;;;;5096976;28;20028;-83
2021/09/05 14:31:10;;;;;;;4.05;3.15;;;39.30;45.70;;;;;;5095510;28;20500;-85